Time;durP1;ratioP1;P1;durP2;ratioP2;P2;SDS_P1;SDS_P2;PMS_P1;PMS_P2;Temp;Humidity;BMP_temperature;BMP_pressure;BME280_temperature;BME280_humidity;BME280_pressure;Samples;Min_cycle;Max_cycle;Signal;HPM_P1;HPM_P2
2020/12/21 00:01:00;;;;;;;9.13;2.75;;;;;;;12.00;58.18;101705.47;5041058;28;20033;-70
2020/12/21 00:03:26;;;;;;;10.32;4.03;;;;;;;12.74;56.40;101710.28;5040871;28;20086;-69
2020/12/21 00:05:51;;;;;;;12.50;2.67;;;;;;;12.02;58.63;101708.91;5043710;28;21740;-70
2020/12/21 00:08:17;;;;;;;11.50;2.60;;;;;;;12.52;57.27;101710.41;5022960;28;20062;-69
2020/12/21 00:10:42;;;;;;;13.18;1.83;;;;;;;11.91;59.03;101713.28;5037302;28;20702;-69
2020/12/21 00:13:08;;;;;;;14.25;3.15;;;;;;;12.56;57.14;101729.41;5040141;28;20079;-71
2020/12/21 00:15:33;;;;;;;4.93;2.33;;;;;;;12.57;56.86;101734.63;5038598;28;20170;-70
2020/12/21 00:17:59;;;;;;;14.75;2.22;;;;;;;12.46;57.25;101726.03;5040223;28;20029;-70
2020/12/21 00:20:24;;;;;;;10.00;2.63;;;;;;;12.77;56.55;101724.13;5032157;28;20432;-70
2020/12/21 00:22:50;;;;;;;6.85;2.22;;;;;;;12.22;57.61;101722.66;5039699;28;20040;-70
2020/12/21 00:25:15;;;;;;;4.75;1.90;;;;;;;11.75;59.03;101723.63;5055798;28;20041;-69
2020/12/21 00:27:41;;;;;;;11.77;2.72;;;;;;;12.62;56.89;101738.03;5041508;28;20048;-70
2020/12/21 00:30:06;;;;;;;8.40;2.65;;;;;;;12.20;57.60;101732.16;5029531;28;20035;-70
2020/12/21 00:32:33;;;;;;;13.02;2.80;;;;;;;12.28;57.66;101736.44;5035717;28;20487;-71
2020/12/21 00:34:59;;;;;;;6.07;2.55;;;;;;;12.41;57.51;101735.53;5039578;28;20482;-70
2020/12/21 00:37:25;;;;;;;8.95;2.58;;;;;;;12.80;56.20;101736.22;5039359;28;20033;-70
2020/12/21 00:39:51;;;;;;;12.93;2.47;;;;;;;12.61;57.00;101731.13;5054327;28;20035;-70
2020/12/21 00:42:16;;;;;;;6.97;2.30;;;;;;;12.80;56.15;101734.47;5043597;28;20123;-70
2020/12/21 00:44:42;;;;;;;12.10;2.05;;;;;;;13.08;55.44;101729.97;5039129;28;20021;-70
2020/12/21 00:47:07;;;;;;;6.30;1.95;;;;;;;12.83;56.04;101728.38;5045141;28;20091;-70
2020/12/21 00:49:32;;;;;;;8.77;2.17;;;;;;;12.85;55.87;101735.28;5036056;28;20025;-70
2020/12/21 00:51:58;;;;;;;9.18;2.53;;;;;;;12.50;57.18;101738.06;5049332;28;20776;-70
2020/12/21 00:54:24;;;;;;;7.43;2.35;;;;;;;12.94;55.77;101744.75;5051374;28;20037;-70
2020/12/21 00:56:49;;;;;;;8.70;2.60;;;;;;;12.99;56.16;101742.13;5042939;28;20060;-70
2020/12/21 00:59:15;;;;;;;9.65;2.38;;;;;;;12.59;56.77;101753.63;5044485;28;20414;-70
2020/12/21 01:01:40;;;;;;;14.70;3.97;;;;;;;12.59;56.70;101753.63;5028156;28;20043;-70
2020/12/21 01:04:06;;;;;;;10.90;2.90;;;;;;;12.83;56.43;101751.75;5035707;28;20029;-70
2020/12/21 01:06:32;;;;;;;5.68;3.35;;;;;;;13.21;54.84;101746.28;5044986;28;20037;-70
2020/12/21 01:08:59;;;;;;;11.60;2.63;;;;;;;13.04;55.79;101756.81;5046646;28;20029;-70
2020/12/21 01:11:28;;;;;;;11.90;2.90;;;;;;;12.63;56.71;101747.53;5040917;28;20038;-70
2020/12/21 01:13:54;;;;;;;10.48;3.75;;;;;;;13.29;54.74;101741.94;5042841;28;20025;-70
2020/12/21 01:16:21;;;;;;;14.95;2.95;;;;;;;13.08;55.18;101742.06;5048743;28;20037;-70
2020/12/21 01:18:46;;;;;;;14.88;3.75;;;;;;;13.00;55.31;101749.06;5041250;28;20490;-70
2020/12/21 01:21:22;;;;;;;10.10;3.00;;;;;;;12.79;56.26;101752.63;5048724;28;20044;-69
2020/12/21 01:23:47;;;;;;;6.97;3.17;;;;;;;12.82;55.73;101765.59;5041552;28;20039;-69
2020/12/21 01:26:13;;;;;;;8.52;2.60;;;;;;;12.92;55.46;101761.19;5054604;28;20037;-70
2020/12/21 01:28:38;;;;;;;11.95;3.65;;;;;;;11.95;58.49;101767.66;5049924;28;20113;-70
2020/12/21 01:31:04;;;;;;;12.10;2.92;;;;;;;12.41;57.17;101758.88;5048055;28;20037;-69
2020/12/21 01:33:29;;;;;;;8.77;2.38;;;;;;;12.57;56.42;101764.84;5043124;28;20029;-69
2020/12/21 01:35:55;;;;;;;7.28;3.15;;;;;;;12.67;56.16;101758.75;5056483;28;20040;-70
2020/12/21 01:38:20;;;;;;;9.00;2.50;;;;;;;12.48;56.66;101760.59;5027614;28;20040;-70
2020/12/21 01:40:46;;;;;;;7.55;3.22;;;;;;;12.79;55.84;101758.69;5041601;28;20538;-70
2020/12/21 01:43:11;;;;;;;13.52;2.72;;;;;;;12.24;57.38;101757.22;5043142;28;20044;-70
2020/12/21 01:45:37;;;;;;;12.93;2.72;;;;;;;12.41;57.24;101761.47;5041633;28;20037;-70
2020/12/21 01:48:02;;;;;;;6.18;3.38;;;;;;;11.78;58.75;101762.47;5043426;28;20109;-70
2020/12/21 01:50:28;;;;;;;10.98;3.63;;;;;;;12.59;56.91;101763.09;5042549;28;20072;-70
2020/12/21 01:52:54;;;;;;;8.52;3.58;;;;;;;12.08;58.05;101754.66;5042966;28;20083;-69
2020/12/21 01:55:21;;;;;;;9.82;3.38;;;;;;;12.82;56.11;101768.19;5040171;28;20052;-70
2020/12/21 01:57:47;;;;;;;10.15;3.55;;;;;;;12.49;56.51;101757.13;5056613;28;20045;-70
2020/12/21 02:00:12;;;;;;;9.73;2.78;;;;;;;12.55;56.72;101757.09;5040661;28;20124;-70
2020/12/21 02:02:38;;;;;;;14.50;3.33;;;;;;;12.57;56.52;101768.31;5050500;28;20047;-69
2020/12/21 02:05:04;;;;;;;13.65;3.47;;;;;;;12.24;57.05;101759.81;5042428;28;20025;-70
2020/12/21 02:07:29;;;;;;;14.68;4.45;;;;;;;12.69;55.70;101762.19;5046790;28;20098;-70
2020/12/21 02:09:56;;;;;;;16.50;3.85;;;;;;;11.94;58.40;101750.38;5041246;28;20057;-70
2020/12/21 02:12:22;;;;;;;14.90;3.47;;;;;;;12.22;57.87;101758.09;5043267;28;20033;-70
2020/12/21 02:14:47;;;;;;;7.78;2.78;;;;;;;12.75;56.13;101763.88;5041289;28;20030;-70
2020/12/21 02:17:13;;;;;;;15.18;4.03;;;;;;;12.46;56.80;101760.59;5043515;28;20068;-69
2020/12/21 02:19:38;;;;;;;9.27;4.28;;;;;;;12.74;56.12;101763.03;5038340;28;20072;-72
2020/12/21 02:22:04;;;;;;;11.23;3.28;;;;;;;12.20;57.38;101765.88;5043654;28;20029;-70
2020/12/21 02:24:29;;;;;;;11.48;4.20;;;;;;;12.82;55.69;101750.03;5045652;28;20489;-69
2020/12/21 02:26:54;;;;;;;9.20;3.25;;;;;;;12.02;57.82;101756.41;5035718;28;20073;-70
2020/12/21 02:29:20;;;;;;;10.23;3.25;;;;;;;11.73;58.36;101758.19;5047616;28;20124;-70
2020/12/21 02:31:45;;;;;;;21.33;3.50;;;;;;;12.01;57.72;101764.19;5038377;28;20030;-71
2020/12/21 02:34:11;;;;;;;10.82;4.03;;;;;;;11.89;57.97;101767.66;5047978;28;20064;-71
2020/12/21 02:36:36;;;;;;;13.23;3.92;;;;;;;12.11;57.70;101760.72;5050283;28;20032;-71
2020/12/21 02:39:02;;;;;;;8.68;2.78;;;;;;;12.48;56.25;101755.41;5040503;28;20429;-70
2020/12/21 02:41:28;;;;;;;15.25;3.42;;;;;;;12.34;56.54;101762.34;5049069;28;20033;-72
2020/12/21 02:43:53;;;;;;;15.95;3.25;;;;;;;12.55;55.30;101764.00;5041902;28;20026;-70
2020/12/21 02:46:19;;;;;;;9.40;2.55;;;;;;;12.20;56.41;101765.88;5042287;28;20355;-70
2020/12/21 02:48:47;;;;;;;8.77;3.60;;;;;;;12.18;56.60;101770.19;5043478;28;20041;-72
2020/12/21 02:51:16;;;;;;;13.25;3.92;;;;;;;12.41;55.64;101770.13;5044260;28;20045;-69
2020/12/21 02:53:42;;;;;;;16.10;3.53;;;;;;;11.97;56.85;101765.09;5039255;28;20021;-70
2020/12/21 02:56:07;;;;;;;11.50;3.65;;;;;;;11.78;57.62;101765.06;5059202;28;20391;-69
2020/12/21 02:58:32;;;;;;;7.93;3.05;;;;;;;11.00;59.98;101757.28;5039904;28;20402;-70
2020/12/21 03:00:58;;;;;;;5.88;2.80;;;;;;;11.58;58.21;101765.09;5055818;28;20056;-72
2020/12/21 03:03:23;;;;;;;11.55;3.35;;;;;;;11.54;57.99;101762.50;5050581;28;20025;-70
2020/12/21 03:05:49;;;;;;;8.93;3.08;;;;;;;11.71;57.52;101760.75;5056631;28;20040;-70
2020/12/21 03:08:16;;;;;;;4.38;2.92;;;;;;;11.64;57.79;101761.63;5041068;28;20029;-71
2020/12/21 03:10:42;;;;;;;9.13;3.50;;;;;;;11.54;57.65;101768.56;5041120;28;20041;-69
2020/12/21 03:13:08;;;;;;;8.48;2.95;;;;;;;11.53;57.86;101766.81;5043331;28;20143;-69
2020/12/21 03:15:33;;;;;;;12.93;3.40;;;;;;;11.61;57.65;101777.19;5043306;28;20086;-72
2020/12/21 03:17:59;;;;;;;9.05;2.85;;;;;;;11.64;57.22;101772.84;5048638;28;20036;-71
2020/12/21 03:20:24;;;;;;;9.18;3.03;;;;;;;11.65;57.14;101760.75;5042795;28;20577;-70
2020/12/21 03:22:50;;;;;;;11.13;3.10;;;;;;;11.60;57.03;101757.31;5049005;28;20028;-70
2020/12/21 03:25:16;;;;;;;12.35;3.45;;;;;;;11.50;57.12;101776.31;5022407;28;20428;-69
2020/12/21 03:27:42;;;;;;;7.68;3.00;;;;;;;11.00;58.72;101776.25;5053765;28;20029;-69
2020/12/21 03:30:09;;;;;;;8.02;2.72;;;;;;;11.40;57.52;101771.13;5057808;28;20482;-71
2020/12/21 03:32:35;;;;;;;9.40;3.67;;;;;;;10.90;58.94;101764.19;5039293;28;20113;-69
2020/12/21 03:35:01;;;;;;;11.80;2.85;;;;;;;10.72;59.11;101769.31;5042641;28;20036;-71
2020/12/21 03:37:32;;;;;;;9.65;2.78;;;;;;;11.16;58.04;101765.94;5024429;28;20053;-71
2020/12/21 03:39:58;;;;;;;16.50;3.15;;;;;;;11.27;57.80;101769.41;5054911;28;20071;-70
2020/12/21 03:42:24;;;;;;;13.02;4.15;;;;;;;11.21;57.62;101774.59;5040193;28;20486;-70
2020/12/21 03:44:49;;;;;;;11.93;3.00;;;;;;;11.60;56.65;101772.84;5034860;28;20067;-70
2020/12/21 03:47:15;;;;;;;17.55;3.38;;;;;;;11.05;58.27;101762.47;5042526;28;20063;-71
2020/12/21 03:49:40;;;;;;;10.07;3.08;;;;;;;11.15;57.71;101764.22;5039405;28;20090;-70
2020/12/21 03:52:06;;;;;;;11.07;3.53;;;;;;;11.49;56.36;101767.69;5041292;28;21030;-69
2020/12/21 03:54:31;;;;;;;8.32;2.55;;;;;;;11.28;56.99;101763.38;5032427;28;20413;-69
2020/12/21 03:56:56;;;;;;;11.07;2.95;;;;;;;10.73;58.73;101760.69;5022876;28;20372;-70
2020/12/21 03:59:22;;;;;;;11.55;4.22;;;;;;;10.36;59.59;101771.78;5040922;28;20032;-70
2020/12/21 04:01:47;;;;;;;9.65;3.08;;;;;;;11.08;57.49;101770.25;5036242;28;20090;-70
2020/12/21 04:04:13;;;;;;;9.30;4.88;;;;;;;11.02;57.40;101761.59;5050042;28;20044;-69
2020/12/21 04:06:38;;;;;;;9.23;3.55;;;;;;;10.84;57.86;101759.00;5038186;28;20517;-70
2020/12/21 04:09:04;;;;;;;10.40;3.22;;;;;;;11.07;57.21;101758.16;5029444;28;20031;-69
2020/12/21 04:11:30;;;;;;;12.43;3.10;;;;;;;10.51;58.92;101763.19;5041523;28;20059;-71
2020/12/21 04:13:55;;;;;;;6.13;2.72;;;;;;;10.57;58.94;101759.78;5036610;28;20018;-70
2020/12/21 04:16:21;;;;;;;12.43;2.63;;;;;;;10.44;58.96;101756.28;5042712;28;20086;-69
2020/12/21 04:18:46;;;;;;;12.43;3.47;;;;;;;10.66;57.94;101759.81;5038947;28;20068;-70
2020/12/21 04:21:13;;;;;;;6.93;3.08;;;;;;;10.58;58.30;101756.31;5057042;28;20033;-69
2020/12/21 04:23:39;;;;;;;19.00;4.13;;;;;;;10.70;58.01;101765.88;5040142;28;20055;-71
2020/12/21 04:26:05;;;;;;;8.55;3.80;;;;;;;10.62;58.22;101767.56;5050142;28;20029;-71
2020/12/21 04:28:32;;;;;;;8.25;2.80;;;;;;;10.80;57.88;101757.25;5045556;28;20123;-71
2020/12/21 04:31:02;;;;;;;12.15;3.13;;;;;;;10.51;58.79;101755.44;5039520;28;20025;-70
2020/12/21 04:33:27;;;;;;;10.00;3.00;;;;;;;11.10;56.94;101755.59;5038619;28;20457;-70
2020/12/21 04:35:53;;;;;;;9.23;2.72;;;;;;;10.92;57.15;101762.47;5040031;28;20037;-70
2020/12/21 04:38:18;;;;;;;10.32;4.47;;;;;;;10.93;56.97;101763.31;5046616;28;20041;-70
2020/12/21 04:40:50;;;;;;;15.85;3.63;;;;;;;10.85;57.13;101767.59;5036416;28;20061;-70
2020/12/21 04:43:16;;;;;;;6.57;4.03;;;;;;;10.93;56.63;101761.59;5043093;28;20033;-69
2020/12/21 04:45:42;;;;;;;12.80;3.50;;;;;;;10.98;56.76;101765.06;5037328;28;20037;-70
2020/12/21 04:48:12;;;;;;;11.82;3.58;;;;;;;10.66;57.45;101759.81;5042320;28;20333;-70
2020/12/21 04:50:38;;;;;;;10.45;4.72;;;;;;;10.95;56.49;101762.47;5037087;28;20045;-70
2020/12/21 04:53:07;;;;;;;12.80;3.30;;;;;;;10.90;56.64;101764.19;5043576;28;20037;-72
2020/12/21 04:55:32;;;;;;;14.25;3.85;;;;;;;10.96;56.58;101768.50;5043849;28;20075;-72
2020/12/21 04:58:03;;;;;;;12.88;3.47;;;;;;;10.73;57.18;101771.88;5043638;28;20037;-72
2020/12/21 05:00:31;;;;;;;5.70;3.25;;;;;;;10.76;56.80;101766.75;5035725;28;20041;-71
2020/12/21 05:02:58;;;;;;;12.13;3.67;;;;;;;10.42;57.90;101778.66;5041119;28;20040;-70
2020/12/21 05:05:33;;;;;;;7.85;2.92;;;;;;;10.52;57.72;101782.19;5040700;28;20037;-70
2020/12/21 05:08:08;;;;;;;9.60;3.75;;;;;;;10.66;57.13;101779.63;5057227;28;20060;-70
2020/12/21 05:10:35;;;;;;;12.05;4.15;;;;;;;10.69;56.67;101775.31;5038116;28;20041;-70
2020/12/21 05:13:02;;;;;;;9.93;4.38;;;;;;;10.62;56.72;101777.91;5046444;28;20033;-70
2020/12/21 05:15:28;;;;;;;11.20;3.58;;;;;;;10.64;56.93;101768.44;5040772;28;20041;-70
2020/12/21 05:18:10;;;;;;;8.98;3.70;;;;;;;10.29;58.43;101779.47;5061796;28;20033;-70
2020/12/21 05:20:36;;;;;;;11.48;3.85;;;;;;;10.33;58.37;101771.75;5039408;28;20041;-71
2020/12/21 05:23:04;;;;;;;6.15;3.03;;;;;;;10.48;57.87;101768.38;5039894;28;20094;-70
2020/12/21 05:25:29;;;;;;;10.25;3.92;;;;;;;10.41;58.03;101774.38;5038250;28;20055;-70
2020/12/21 05:27:55;;;;;;;9.95;3.58;;;;;;;10.34;57.98;101767.47;5039407;28;20482;-70
2020/12/21 05:30:20;;;;;;;7.13;3.90;;;;;;;10.55;57.03;101766.66;5066308;28;20068;-72
2020/12/21 05:32:46;;;;;;;20.00;4.82;;;;;;;10.51;57.07;101764.94;5042685;28;20041;-70
2020/12/21 05:35:14;;;;;;;9.90;4.10;;;;;;;10.37;57.23;101772.63;5047004;28;20051;-71
2020/12/21 05:37:40;;;;;;;8.40;3.47;;;;;;;10.51;56.90;101776.13;5043076;28;20032;-71
2020/12/21 05:40:08;;;;;;;13.98;4.10;;;;;;;10.15;58.58;101769.91;5048684;28;20032;-71
2020/12/21 05:42:35;;;;;;;14.63;5.80;;;;;;;10.27;58.09;101770.81;5041332;28;20108;-72
2020/12/21 05:45:06;;;;;;;7.90;3.67;;;;;;;10.32;57.61;101770.03;5051246;28;20033;-69
2020/12/21 05:47:33;;;;;;;14.85;3.28;;;;;;;10.17;58.23;101769.91;5044865;28;20078;-71
2020/12/21 05:49:59;;;;;;;10.82;4.72;;;;;;;10.33;57.52;101773.47;5061015;28;20021;-70
2020/12/21 05:52:29;;;;;;;18.20;4.43;;;;;;;10.38;57.29;101771.75;5068219;28;20613;-71
2020/12/21 05:54:55;;;;;;;9.18;3.00;;;;;;;10.34;57.38;101767.47;5066323;28;20554;-72
2020/12/21 05:57:27;;;;;;;15.27;5.03;;;;;;;9.89;59.29;101768.88;5050524;28;20063;-70
2020/12/21 05:59:53;;;;;;;12.03;4.13;;;;;;;9.76;59.78;101770.53;5042447;28;20415;-69
2020/12/21 06:02:19;;;;;;;13.93;5.50;;;;;;;10.01;58.93;101768.97;5031647;28;20033;-70
2020/12/21 06:04:49;;;;;;;9.93;3.55;;;;;;;10.03;58.64;101761.25;5056268;28;20440;-69
2020/12/21 06:07:21;;;;;;;15.95;4.28;;;;;;;10.25;57.84;101762.19;5045100;28;20039;-69
2020/12/21 06:09:50;;;;;;;13.02;4.55;;;;;;;9.69;60.13;101767.06;5068560;28;20028;-71
2020/12/21 06:12:19;;;;;;;10.82;3.80;;;;;;;9.85;59.30;101774.91;5043487;28;20047;-70
2020/12/21 06:14:47;;;;;;;14.05;4.03;;;;;;;10.15;58.22;101777.66;5052573;28;20462;-70
2020/12/21 06:17:14;;;;;;;17.40;4.82;;;;;;;10.12;58.28;101772.47;5051220;28;20044;-70
2020/12/21 06:19:39;;;;;;;9.77;3.83;;;;;;;10.00;58.79;101777.56;5047210;28;20123;-70
2020/12/21 06:22:05;;;;;;;14.55;4.18;;;;;;;10.08;58.26;101775.03;5039512;28;20060;-70
2020/12/21 06:24:38;;;;;;;15.38;5.20;;;;;;;10.04;58.41;101773.28;5039906;28;20032;-70
2020/12/21 06:27:15;;;;;;;8.38;4.20;;;;;;;10.19;57.55;101766.47;5055800;28;20402;-70
2020/12/21 06:29:41;;;;;;;17.02;4.10;;;;;;;9.93;58.65;101775.78;5041507;28;20029;-70
2020/12/21 06:32:08;;;;;;;8.43;4.35;;;;;;;10.00;58.33;101777.56;5041415;28;20033;-69
2020/12/21 06:34:36;;;;;;;11.50;4.60;;;;;;;9.30;60.82;101775.31;5044615;28;20032;-70
2020/12/21 06:37:08;;;;;;;14.68;4.47;;;;;;;9.53;60.05;101770.34;5040742;28;20711;-69
2020/12/21 06:39:34;;;;;;;7.78;3.85;;;;;;;9.61;59.60;101784.19;5064804;28;20487;-70
2020/12/21 06:42:09;;;;;;;13.20;4.25;;;;;;;9.28;60.53;101777.03;5032350;28;20120;-69
2020/12/21 06:44:39;;;;;;;11.48;4.10;;;;;;;9.91;58.48;101785.25;5045835;28;20113;-70
2020/12/21 06:47:06;;;;;;;15.23;4.22;;;;;;;9.74;59.00;101780.00;5048058;28;20033;-70
2020/12/21 06:49:32;;;;;;;11.10;4.60;;;;;;;9.68;59.34;101777.34;5050338;28;20474;-69
2020/12/21 06:51:58;;;;;;;8.00;3.95;;;;;;;9.87;58.57;101778.38;5039799;28;20048;-70
2020/12/21 06:54:23;;;;;;;9.45;4.88;;;;;;;9.42;59.94;101772.88;5047029;28;20036;-70
2020/12/21 06:56:50;;;;;;;13.35;4.05;;;;;;;8.64;62.92;101766.91;5058348;28;20037;-70
2020/12/21 06:59:17;;;;;;;19.35;5.43;;;;;;;9.36;60.64;101770.22;5026449;28;20036;-70
2020/12/21 07:01:45;;;;;;;11.00;4.03;;;;;;;9.80;59.11;101771.41;5038819;28;20087;-70
2020/12/21 07:04:16;;;;;;;14.55;4.60;;;;;;;9.43;60.43;101768.56;5042602;28;20044;-71
2020/12/21 07:06:42;;;;;;;12.48;4.63;;;;;;;9.42;60.74;101769.41;5039766;28;20043;-70
2020/12/21 07:09:08;;;;;;;9.75;3.63;;;;;;;9.74;59.47;101767.09;5043524;28;20033;-72
2020/12/21 07:11:36;;;;;;;8.07;4.30;;;;;;;9.82;59.20;101767.13;5041432;28;20032;-70
2020/12/21 07:14:01;;;;;;;16.75;4.55;;;;;;;9.73;59.63;101768.81;5047041;28;20029;-70
2020/12/21 07:16:27;;;;;;;12.68;3.33;;;;;;;9.92;58.82;101761.16;5045525;28;20104;-70
2020/12/21 07:18:53;;;;;;;16.08;3.58;;;;;;;9.91;58.85;101756.84;5046471;28;20646;-70
2020/12/21 07:21:19;;;;;;;12.40;3.85;;;;;;;9.72;59.25;101756.72;5042665;28;20044;-70
2020/12/21 07:23:45;;;;;;;15.00;4.47;;;;;;;9.94;58.54;101762.03;5033214;28;20045;-70
2020/12/21 07:26:13;;;;;;;11.77;3.50;;;;;;;10.06;58.04;101769.00;5060918;28;20024;-70
2020/12/21 07:28:38;;;;;;;7.63;3.40;;;;;;;10.10;58.10;101768.16;5044646;28;20033;-72
2020/12/21 07:31:20;;;;;;;10.32;4.28;;;;;;;10.04;58.02;101774.13;5060367;28;20036;-70
2020/12/21 07:33:54;;;;;;;17.17;3.33;;;;;;;10.05;58.22;101781.06;5045670;28;20026;-69
2020/12/21 07:36:23;;;;;;;12.40;3.65;;;;;;;10.13;58.23;101778.50;5045185;28;20132;-69
2020/12/21 07:38:49;;;;;;;19.10;3.75;;;;;;;10.04;58.36;101778.44;5042338;28;20363;-69
2020/12/21 07:41:17;;;;;;;8.07;2.67;;;;;;;10.10;57.93;101773.31;5025263;28;20458;-70
2020/12/21 07:43:58;;;;;;;19.05;4.07;;;;;;;10.12;58.11;101777.66;5048307;28;20855;-69
2020/12/21 07:46:25;;;;;;;13.90;3.80;;;;;;;10.13;57.61;101774.19;5044661;28;20094;-69
2020/12/21 07:48:52;;;;;;;19.20;4.47;;;;;;;10.24;57.94;101771.66;5043242;28;20443;-70
2020/12/21 07:51:19;;;;;;;11.98;4.10;;;;;;;9.92;58.76;101769.78;5040036;28;20029;-71
2020/12/21 07:53:46;;;;;;;9.25;4.55;;;;;;;10.04;58.80;101771.56;5040946;28;20586;-70
2020/12/21 07:56:15;;;;;;;12.55;4.05;;;;;;;10.09;59.11;101775.06;5044802;28;20024;-71
2020/12/21 07:58:41;;;;;;;18.38;4.35;;;;;;;10.28;58.47;101764.81;5038581;28;20036;-71
2020/12/21 08:01:07;;;;;;;10.63;4.05;;;;;;;10.16;59.01;101770.78;5038826;28;20494;-70
2020/12/21 08:03:37;;;;;;;12.07;3.70;;;;;;;10.31;58.42;101767.44;5045202;28;20044;-69
2020/12/21 08:06:13;;;;;;;15.85;5.28;;;;;;;10.37;58.36;101777.78;5048143;28;20481;-70
2020/12/21 08:08:40;;;;;;;19.48;6.40;;;;;;;10.35;58.52;101779.50;5063508;28;20044;-70
2020/12/21 08:11:15;;;;;;;16.48;3.70;;;;;;;10.27;58.59;101775.97;5038873;28;20037;-69
2020/12/21 08:14:00;;;;;;;19.67;4.70;;;;;;;9.97;59.61;101786.16;5051755;28;20028;-70
2020/12/21 08:16:26;;;;;;;12.07;3.38;;;;;;;10.12;59.17;101790.56;5049446;28;20037;-69
2020/12/21 08:18:52;;;;;;;10.50;3.55;;;;;;;10.30;58.75;101776.03;5043805;28;20234;-69
2020/12/21 08:21:23;;;;;;;9.73;3.58;;;;;;;10.45;58.55;101777.81;5043221;28;20468;-70
2020/12/21 08:23:58;;;;;;;15.68;3.28;;;;;;;10.75;57.79;101771.91;5046713;28;20029;-69
2020/12/21 08:26:25;;;;;;;12.00;4.20;;;;;;;10.70;57.54;101773.63;5041963;28;20126;-69
2020/12/21 08:28:51;;;;;;;10.07;3.22;;;;;;;10.22;58.75;101778.53;5043391;28;20509;-70
2020/12/21 08:31:22;;;;;;;13.27;4.95;;;;;;;10.32;58.49;101776.91;5043795;28;20040;-69
2020/12/21 08:33:58;;;;;;;7.32;3.92;;;;;;;10.59;58.11;101777.03;5041263;28;20031;-70
2020/12/21 08:36:30;;;;;;;12.23;3.05;;;;;;;10.40;58.11;101767.47;5048140;28;20041;-71
2020/12/21 08:39:19;;;;;;;7.22;3.40;;;;;;;10.84;57.56;101768.47;5040279;28;20041;-69
2020/12/21 08:41:54;;;;;;;15.05;3.65;;;;;;;10.93;56.91;101752.97;5036542;28;20029;-70
2020/12/21 08:44:23;;;;;;;9.93;3.42;;;;;;;10.86;57.51;101762.44;5059379;28;20044;-70
2020/12/21 08:46:59;;;;;;;11.93;3.22;;;;;;;10.87;56.68;101759.00;5041277;28;20025;-70
2020/12/21 08:49:27;;;;;;;9.80;3.67;;;;;;;10.95;56.68;101761.59;5039699;28;20037;-71
2020/12/21 08:51:58;;;;;;;14.77;7.30;;;;;;;10.97;56.82;101757.31;5043608;28;20046;-71
2020/12/21 08:54:23;;;;;;;19.63;6.32;;;;;;;10.86;57.08;101759.88;5042301;28;20036;-72
2020/12/21 08:56:51;;;;;;;10.68;4.55;;;;;;;10.75;57.86;101764.16;5044483;28;20032;-71
2020/12/21 08:59:17;;;;;;;10.23;4.65;;;;;;;10.09;59.46;101762.13;5051184;28;20036;-70
2020/12/21 09:01:43;;;;;;;11.43;4.10;;;;;;;10.91;57.84;101759.88;5036992;28;20044;-71
2020/12/21 09:04:09;;;;;;;14.38;4.60;;;;;;;10.89;57.69;101764.19;5040829;28;20046;-70
2020/12/21 09:06:35;;;;;;;8.95;4.10;;;;;;;10.36;59.16;101765.75;5045764;28;20505;-70
2020/12/21 09:09:01;;;;;;;11.60;4.10;;;;;;;10.47;58.65;101761.47;5045250;28;20041;-70
2020/12/21 09:11:26;;;;;;;11.40;3.78;;;;;;;11.12;57.15;101759.03;5043653;28;20041;-70
2020/12/21 09:13:53;;;;;;;8.75;4.32;;;;;;;11.27;56.47;101761.63;5054099;28;20088;-71
2020/12/21 09:16:20;;;;;;;8.73;4.13;;;;;;;11.11;57.13;101757.31;5044252;28;20029;-70
2020/12/21 09:18:46;;;;;;;14.32;6.13;;;;;;;11.60;56.01;101760.78;5039020;28;20044;-70
2020/12/21 09:21:23;;;;;;;9.48;6.13;;;;;;;12.01;55.22;101759.00;5023301;28;20056;-71
2020/12/21 09:23:50;;;;;;;19.60;4.25;;;;;;;12.14;54.54;101750.31;5033269;28;20095;-70
2020/12/21 09:26:16;;;;;;;7.28;3.53;;;;;;;12.19;54.48;101750.31;5043722;28;20032;-71
2020/12/21 09:28:42;;;;;;;15.35;3.78;;;;;;;11.73;55.44;101746.09;5046513;28;20037;-71
2020/12/21 09:31:12;;;;;;;16.65;3.40;;;;;;;12.44;54.04;101753.69;5029864;28;20782;-70
2020/12/21 09:33:38;;;;;;;6.32;3.20;;;;;;;12.48;54.17;101751.94;5026453;28;20033;-71
2020/12/21 09:36:05;;;;;;;6.80;3.10;;;;;;;12.74;53.66;101746.63;5053965;28;20095;-70
2020/12/21 09:38:30;;;;;;;12.82;3.22;;;;;;;13.24;52.51;101748.00;5043236;28;20116;-70
2020/12/21 09:40:56;;;;;;;8.15;2.80;;;;;;;12.97;53.23;101739.56;5050120;28;20511;-71
2020/12/21 09:43:21;;;;;;;10.10;3.47;;;;;;;13.16;52.39;101742.88;5044434;28;20028;-69
2020/12/21 09:45:47;;;;;;;12.10;3.35;;;;;;;13.22;52.43;101744.56;5041436;28;20124;-69
2020/12/21 09:48:13;;;;;;;7.13;3.30;;;;;;;13.05;52.52;101740.34;5021411;28;20120;-71
2020/12/21 09:50:38;;;;;;;6.97;3.92;;;;;;;13.79;51.15;101739.72;5040805;28;20037;-70
2020/12/21 09:53:04;;;;;;;6.43;2.35;;;;;;;14.16;50.50;101736.75;5038128;28;20093;-70
2020/12/21 09:55:29;;;;;;;6.13;3.13;;;;;;;14.47;49.52;101731.16;5045421;28;20037;-70
2020/12/21 09:57:58;;;;;;;13.43;3.17;;;;;;;14.39;49.53;101715.63;5055829;28;20056;-70
2020/12/21 10:00:23;;;;;;;6.07;2.45;;;;;;;14.36;49.19;101725.25;5050916;28;20041;-70
2020/12/21 10:02:49;;;;;;;8.45;2.45;;;;;;;14.10;49.46;101716.84;5036732;28;20048;-70
2020/12/21 10:05:14;;;;;;;5.28;2.80;;;;;;;13.72;51.01;101719.91;5053292;28;20060;-70
2020/12/21 10:07:40;;;;;;;8.07;2.28;;;;;;;13.49;52.04;101707.13;5047777;28;20585;-69
2020/12/21 10:10:05;;;;;;;11.48;3.45;;;;;;;13.29;52.33;101710.78;5042886;28;20041;-70
2020/12/21 10:12:31;;;;;;;11.40;3.03;;;;;;;14.22;50.07;101695.06;5040056;28;20044;-71
2020/12/21 10:14:56;;;;;;;9.73;2.70;;;;;;;13.75;50.83;101698.22;5039071;28;20052;-70
2020/12/21 10:17:22;;;;;;;10.80;3.35;;;;;;;13.29;52.55;101704.72;5043190;28;20040;-70
2020/12/21 10:19:47;;;;;;;12.13;2.97;;;;;;;14.09;50.24;101702.16;5040908;28;20044;-70
2020/12/21 10:22:13;;;;;;;6.93;2.75;;;;;;;14.46;49.55;101698.22;5042859;28;20041;-70
2020/12/21 10:24:38;;;;;;;8.95;3.88;;;;;;;14.38;49.18;101684.44;5042388;28;20866;-70
2020/12/21 10:27:04;;;;;;;13.13;3.03;;;;;;;13.89;50.96;101692.00;5041969;28;20038;-70
2020/12/21 10:29:30;;;;;;;10.93;3.25;;;;;;;13.65;50.88;101698.31;5038681;28;20076;-70
2020/12/21 10:31:59;;;;;;;8.45;2.60;;;;;;;14.13;50.24;101679.56;5041062;28;20034;-70
2020/12/21 10:34:25;;;;;;;15.98;3.53;;;;;;;14.27;49.89;101680.25;5038377;28;20068;-71
2020/12/21 10:36:52;;;;;;;7.57;1.98;;;;;;;14.15;50.07;101667.41;5037749;28;20123;-70
2020/12/21 10:39:17;;;;;;;8.57;2.45;;;;;;;14.26;50.05;101670.72;5047434;28;20039;-70
2020/12/21 10:41:43;;;;;;;14.73;2.90;;;;;;;13.85;50.88;101669.50;5037308;28;20254;-71
2020/12/21 10:44:09;;;;;;;6.18;2.28;;;;;;;13.01;53.45;101663.38;5040420;28;20051;-70
2020/12/21 10:46:34;;;;;;;9.50;2.92;;;;;;;13.43;51.93;101663.03;5041132;28;20039;-70
2020/12/21 10:49:00;;;;;;;8.65;2.28;;;;;;;13.77;51.35;101653.13;5057939;28;20537;-70
2020/12/21 10:51:29;;;;;;;15.60;2.97;;;;;;;13.04;52.95;101653.00;5044185;28;20040;-70
2020/12/21 10:53:55;;;;;;;6.93;2.13;;;;;;;13.20;52.85;101647.66;5027860;28;20034;-69
2020/12/21 10:56:21;;;;;;;15.02;2.70;;;;;;;13.36;51.69;101654.47;5040660;28;20029;-70
2020/12/21 10:58:47;;;;;;;12.23;3.70;;;;;;;13.61;51.18;101636.00;5043809;28;20100;-70
2020/12/21 11:01:14;;;;;;;12.63;2.17;;;;;;;13.03;52.86;101656.44;5042141;28;20143;-70
2020/12/21 11:03:40;;;;;;;7.53;2.40;;;;;;;12.78;53.33;101645.41;5041316;28;20063;-71
2020/12/21 11:06:05;;;;;;;10.15;2.90;;;;;;;12.77;53.26;101642.81;5045898;28;20037;-70
2020/12/21 11:08:31;;;;;;;15.57;3.20;;;;;;;12.80;53.27;101635.88;5042188;28;20163;-70
2020/12/21 11:10:56;;;;;;;5.30;2.45;;;;;;;13.30;52.05;101644.13;5039937;28;20030;-70
2020/12/21 11:13:22;;;;;;;5.78;2.22;;;;;;;13.34;51.98;101630.25;5043065;28;20040;-70
2020/12/21 11:15:48;;;;;;;8.10;3.10;;;;;;;13.01;53.27;101626.19;5044722;28;20036;-70
2020/12/21 11:18:13;;;;;;;8.65;3.40;;;;;;;13.22;51.92;101625.16;5048713;28;20032;-71
2020/12/21 11:20:38;;;;;;;7.90;2.00;;;;;;;12.98;52.43;101623.63;5041497;28;20057;-70